Azalea Park, Florida
Current Conditions -  °F | °C
As of 3:53 AM on Saturday 25 Oct 2014 (Local Time) from KORL Reporting Station
Scattered Clouds Scattered Clouds  
Wind Chill: 18°   Ceiling: Unl
Heat Index: 18°   Visibility: 10mi
Dew Point: 13°   Wind: 9mph
Humidity: 73%   Direction: 340°NNW
Pressure: 29.95"   Gusts: NA
Location:  28.5525°N, 81.3003°W
Report Text: KORL 250753Z AUTO 34008KT 10SM SCT045 18/13 A2995 RMK AO2 SLP145 T01830133
Loading
Personal Weather Stations






























Interactive Weather Map
Tropical Storm Tracking
New forecast layout! Learn more

10-Day Weather Forecast

Advertisements
Track Severe Weather on mobile